sensor_id;sensor_type;location;lat;lon;timestamp;pressure;altitude;pressure_sealevel;temperature;humidity
80124;BME280;69433;48.642;9.142;2023-10-13T00:00:36;97131.38;;;23.36;42.85
80124;BME280;69433;48.642;9.142;2023-10-13T00:03:07;97130.63;;;23.36;43.05
80124;BME280;69433;48.642;9.142;2023-10-13T00:05:57;97135.25;;;23.35;42.92
80124;BME280;69433;48.642;9.142;2023-10-13T00:08:25;97125.28;;;23.36;42.88
80124;BME280;69433;48.642;9.142;2023-10-13T00:10:51;97125.28;;;23.36;42.92
80124;BME280;69433;48.642;9.142;2023-10-13T00:13:18;97124.50;;;23.35;42.89
80124;BME280;69433;48.642;9.142;2023-10-13T00:15:46;97121.06;;;23.35;43.07
80124;BME280;69433;48.642;9.142;2023-10-13T00:18:28;97124.50;;;23.35;43.03
80124;BME280;69433;48.642;9.142;2023-10-13T00:21:07;97117.63;;;23.34;42.91
80124;BME280;69433;48.642;9.142;2023-10-13T00:23:44;97119.91;;;23.36;42.99
80124;BME280;69433;48.642;9.142;2023-10-13T00:26:23;97117.63;;;23.34;43.15
80124;BME280;69433;48.642;9.142;2023-10-13T00:28:59;97117.63;;;23.34;42.83
80124;BME280;69433;48.642;9.142;2023-10-13T00:31:40;97113.00;;;23.35;42.68
80124;BME280;69433;48.642;9.142;2023-10-13T00:34:08;97109.56;;;23.34;43.09
80124;BME280;69433;48.642;9.142;2023-10-13T00:36:50;97110.72;;;23.33;42.84
80124;BME280;69433;48.642;9.142;2023-10-13T00:39:38;97106.88;;;23.34;42.83
80124;BME280;69433;48.642;9.142;2023-10-13T00:42:09;97108.06;;;23.33;43.11
80124;BME280;69433;48.642;9.142;2023-10-13T00:44:46;97105.38;;;23.33;42.83
80124;BME280;69433;48.642;9.142;2023-10-13T00:47:20;97106.88;;;23.34;43.14
80124;BME280;69433;48.642;9.142;2023-10-13T00:50:17;97105.38;;;23.33;42.90
80124;BME280;69433;48.642;9.142;2023-10-13T00:52:43;97107.66;;;23.35;42.98
80124;BME280;69433;48.642;9.142;2023-10-13T00:55:13;97106.88;;;23.34;42.91
80124;BME280;69433;48.642;9.142;2023-10-13T00:57:45;97108.06;;;23.33;42.87
80124;BME280;69433;48.642;9.142;2023-10-13T01:00:12;97096.56;;;23.33;43.07
80124;BME280;69433;48.642;9.142;2023-10-13T01:02:46;97109.97;;;23.33;42.87
80124;BME280;69433;48.642;9.142;2023-10-13T01:05:23;97105.78;;;23.31;43.13
80124;BME280;69433;48.642;9.142;2023-10-13T01:07:49;97103.84;;;23.32;42.96
80124;BME280;69433;48.642;9.142;2023-10-13T01:10:31;97113.41;;;23.33;43.19
80124;BME280;69433;48.642;9.142;2023-10-13T01:12:57;97116.09;;;23.33;42.98
80124;BME280;69433;48.642;9.142;2023-10-13T01:15:30;97109.22;;;23.32;43.03
80124;BME280;69433;48.642;9.142;2023-10-13T01:18:08;97104.59;;;23.33;42.94
80124;BME280;69433;48.642;9.142;2023-10-13T01:20:38;97103.84;;;23.32;42.91
80124;BME280;69433;48.642;9.142;2023-10-13T01:23:17;97100.81;;;23.30;42.78
80124;BME280;69433;48.642;9.142;2023-10-13T01:26:08;97095.03;;;23.31;42.94
80124;BME280;69433;48.642;9.142;2023-10-13T01:28:34;97099.66;;;23.31;43.09
80124;BME280;69433;48.642;9.142;2023-10-13T01:31:12;97095.44;;;23.30;43.26
80124;BME280;69433;48.642;9.142;2023-10-13T01:33:49;97087.00;;;23.31;43.00
80124;BME280;69433;48.642;9.142;2023-10-13T01:36:24;97083.53;;;23.31;43.17
80124;BME280;69433;48.642;9.142;2023-10-13T01:38:57;97079.34;;;23.30;43.10
80124;BME280;69433;48.642;9.142;2023-10-13T01:41:28;97083.94;;;23.29;43.15
80124;BME280;69433;48.642;9.142;2023-10-13T01:43:56;97082.78;;;23.30;42.93
80124;BME280;69433;48.642;9.142;2023-10-13T01:46:23;97085.88;;;23.29;42.92
80124;BME280;69433;48.642;9.142;2023-10-13T01:48:48;97085.47;;;23.30;42.93
80124;BME280;69433;48.642;9.142;2023-10-13T01:51:14;97090.06;;;23.30;42.85
80124;BME280;69433;48.642;9.142;2023-10-13T01:53:40;97089.31;;;23.29;42.99
80124;BME280;69433;48.642;9.142;2023-10-13T01:56:16;97084.72;;;23.30;43.03
80124;BME280;69433;48.642;9.142;2023-10-13T01:58:42;97083.59;;;23.27;43.05
80124;BME280;69433;48.642;9.142;2023-10-13T02:01:09;97083.94;;;23.29;43.17
80124;BME280;69433;48.642;9.142;2023-10-13T02:03:35;97083.94;;;23.29;42.86
80124;BME280;69433;48.642;9.142;2023-10-13T02:06:14;97083.19;;;23.29;43.02
80124;BME280;69433;48.642;9.142;2023-10-13T02:08:43;97074.78;;;23.27;42.97
80124;BME280;69433;48.642;9.142;2023-10-13T02:11:09;97073.63;;;23.28;43.15
80124;BME280;69433;48.642;9.142;2023-10-13T02:13:34;97073.28;;;23.26;43.02
80124;BME280;69433;48.642;9.142;2023-10-13T02:16:17;97061.03;;;23.25;42.87
80124;BME280;69433;48.642;9.142;2023-10-13T02:18:47;97065.25;;;23.26;42.79
80124;BME280;69433;48.642;9.142;2023-10-13T02:21:34;97060.28;;;23.24;42.97
80124;BME280;69433;48.642;9.142;2023-10-13T02:24:10;97060.28;;;23.24;43.31
80124;BME280;69433;48.642;9.142;2023-10-13T02:26:38;97056.44;;;23.25;43.04
80124;BME280;69433;48.642;9.142;2023-10-13T02:29:04;97061.03;;;23.25;42.90
80124;BME280;69433;48.642;9.142;2023-10-13T02:31:35;97058.34;;;23.25;42.95
80124;BME280;69433;48.642;9.142;2023-10-13T02:34:00;97054.50;;;23.26;42.89
80124;BME280;69433;48.642;9.142;2023-10-13T02:36:36;97055.66;;;23.25;42.92
80124;BME280;69433;48.642;9.142;2023-10-13T02:39:12;97041.50;;;23.24;43.24
80124;BME280;69433;48.642;9.142;2023-10-13T02:41:39;97038.06;;;23.24;42.99
80124;BME280;69433;48.642;9.142;2023-10-13T02:44:22;97040.34;;;23.25;42.88
80124;BME280;69433;48.642;9.142;2023-10-13T02:47:16;97038.41;;;23.26;43.16
80124;BME280;69433;48.642;9.142;2023-10-13T02:49:44;97036.13;;;23.24;42.93
80124;BME280;69433;48.642;9.142;2023-10-13T02:52:12;97035.38;;;23.24;43.04
80124;BME280;69433;48.642;9.142;2023-10-13T02:54:38;97032.69;;;23.24;42.89
80124;BME280;69433;48.642;9.142;2023-10-13T02:57:18;97021.19;;;23.23;42.78
80124;BME280;69433;48.642;9.142;2023-10-13T02:59:44;97027.31;;;23.24;42.93
80124;BME280;69433;48.642;9.142;2023-10-13T03:02:14;97030.00;;;23.24;42.78
80124;BME280;69433;48.642;9.142;2023-10-13T03:04:55;97025.06;;;23.22;42.86
80124;BME280;69433;48.642;9.142;2023-10-13T03:07:28;97024.28;;;23.22;43.15
80124;BME280;69433;48.642;9.142;2023-10-13T03:09:55;97020.44;;;23.23;42.85
80124;BME280;69433;48.642;9.142;2023-10-13T03:12:37;97018.16;;;23.21;42.91
80124;BME280;69433;48.642;9.142;2023-10-13T03:15:06;97024.28;;;23.22;42.79
80124;BME280;69433;48.642;9.142;2023-10-13T03:17:46;97028.50;;;23.23;42.96
80124;BME280;69433;48.642;9.142;2023-10-13T03:20:19;97018.94;;;23.22;43.00
80124;BME280;69433;48.642;9.142;2023-10-13T03:22:58;97016.25;;;23.22;42.81
80124;BME280;69433;48.642;9.142;2023-10-13T03:25:31;97010.53;;;23.20;43.06
80124;BME280;69433;48.642;9.142;2023-10-13T03:28:07;97014.72;;;23.21;42.99
80124;BME280;69433;48.642;9.142;2023-10-13T03:30:35;97005.16;;;23.20;42.84
80124;BME280;69433;48.642;9.142;2023-10-13T03:33:05;97004.00;;;23.21;42.77
80124;BME280;69433;48.642;9.142;2023-10-13T03:35:37;97011.28;;;23.20;42.91
80124;BME280;69433;48.642;9.142;2023-10-13T03:38:03;97005.16;;;23.20;43.14
80124;BME280;69433;48.642;9.142;2023-10-13T03:40:30;97001.72;;;23.19;43.16
80124;BME280;69433;48.642;9.142;2023-10-13T03:42:57;97003.63;;;23.19;42.81
80124;BME280;69433;48.642;9.142;2023-10-13T03:45:51;96996.34;;;23.19;43.13
80124;BME280;69433;48.642;9.142;2023-10-13T03:48:27;96996.75;;;23.18;42.95
80124;BME280;69433;48.642;9.142;2023-10-13T03:51:01;96996.75;;;23.18;42.95
80124;BME280;69433;48.642;9.142;2023-10-13T03:53:40;96994.81;;;23.18;42.97
80124;BME280;69433;48.642;9.142;2023-10-13T03:56:23;96983.34;;;23.18;42.82
80124;BME280;69433;48.642;9.142;2023-10-13T03:58:55;96996.00;;;23.17;43.16
80124;BME280;69433;48.642;9.142;2023-10-13T04:01:25;96988.69;;;23.18;42.94
80124;BME280;69433;48.642;9.142;2023-10-13T04:04:02;96992.53;;;23.17;43.07
80124;BME280;69433;48.642;9.142;2023-10-13T04:06:38;96993.66;;;23.19;42.81
80124;BME280;69433;48.642;9.142;2023-10-13T04:09:28;96989.13;;;23.16;43.11
80124;BME280;69433;48.642;9.142;2023-10-13T04:12:01;96986.44;;;23.16;43.11
80124;BME280;69433;48.642;9.142;2023-10-13T04:14:30;96988.38;;;23.16;42.86
80124;BME280;69433;48.642;9.142;2023-10-13T04:17:19;96994.81;;;23.18;43.03
80124;BME280;69433;48.642;9.142;2023-10-13T04:19:51;96988.38;;;23.16;43.09
80124;BME280;69433;48.642;9.142;2023-10-13T04:22:43;96994.50;;;23.16;43.00
80124;BME280;69433;48.642;9.142;2023-10-13T04:25:22;96992.22;;;23.15;42.89
80124;BME280;69433;48.642;9.142;2023-10-13T04:28:11;96992.22;;;23.15;43.15
80124;BME280;69433;48.642;9.142;2023-10-13T04:30:50;96985.34;;;23.14;43.12
80124;BME280;69433;48.642;9.142;2023-10-13T04:33:28;96991.84;;;23.13;42.91
80124;BME280;69433;48.642;9.142;2023-10-13T04:36:03;96991.09;;;23.12;42.98
80124;BME280;69433;48.642;9.142;2023-10-13T04:38:45;96989.94;;;23.13;43.21
80124;BME280;69433;48.642;9.142;2023-10-13T04:41:31;96989.94;;;23.13;42.98
80124;BME280;69433;48.642;9.142;2023-10-13T04:44:03;96983.81;;;23.13;42.88
80124;BME280;69433;48.642;9.142;2023-10-13T04:46:52;96977.69;;;23.12;43.18
80124;BME280;69433;48.642;9.142;2023-10-13T04:49:24;96978.09;;;23.11;43.13
80124;BME280;69433;48.642;9.142;2023-10-13T04:52:05;96972.72;;;23.11;42.83
80124;BME280;69433;48.642;9.142;2023-10-13T04:54:44;96970.06;;;23.11;43.00
80124;BME280;69433;48.642;9.142;2023-10-13T04:57:24;96967.38;;;23.11;43.07
80124;BME280;69433;48.642;9.142;2023-10-13T05:00:04;96963.94;;;23.10;43.34
80124;BME280;69433;48.642;9.142;2023-10-13T05:02:45;96958.56;;;23.10;42.96
80124;BME280;69433;48.642;9.142;2023-10-13T05:05:46;96961.25;;;23.10;42.93
80124;BME280;69433;48.642;9.142;2023-10-13T05:08:31;96964.31;;;23.09;43.21
80124;BME280;69433;48.642;9.142;2023-10-13T05:11:19;96960.13;;;23.08;43.17
80124;BME280;69433;48.642;9.142;2023-10-13T05:14:03;96958.63;;;23.07;43.47
80124;BME280;69433;48.642;9.142;2023-10-13T05:16:50;96961.66;;;23.09;43.06
80124;BME280;69433;48.642;9.142;2023-10-13T05:19:34;96961.66;;;23.09;43.21
80124;BME280;69433;48.642;9.142;2023-10-13T05:22:19;96958.97;;;23.09;43.02
80124;BME280;69433;48.642;9.142;2023-10-13T05:25:02;96960.47;;;23.10;43.21
80124;BME280;69433;48.642;9.142;2023-10-13T05:27:48;96960.13;;;23.08;43.36
80124;BME280;69433;48.642;9.142;2023-10-13T05:30:32;96962.81;;;23.08;43.28
80124;BME280;69433;48.642;9.142;2023-10-13T05:33:24;96956.69;;;23.07;43.05
80124;BME280;69433;48.642;9.142;2023-10-13T05:36:11;96958.63;;;23.07;43.22
80124;BME280;69433;48.642;9.142;2023-10-13T05:38:56;96958.63;;;23.07;43.30
80124;BME280;69433;48.642;9.142;2023-10-13T05:41:40;96958.28;;;23.05;43.24
80124;BME280;69433;48.642;9.142;2023-10-13T05:44:25;96951.75;;;23.06;43.13
80124;BME280;69433;48.642;9.142;2023-10-13T05:47:03;96957.88;;;23.06;43.00
80124;BME280;69433;48.642;9.142;2023-10-13T05:49:52;96951.75;;;23.06;43.17
80124;BME280;69433;48.642;9.142;2023-10-13T05:52:49;96948.63;;;23.07;43.00
80124;BME280;69433;48.642;9.142;2023-10-13T05:55:30;96951.75;;;23.06;43.17
80124;BME280;69433;48.642;9.142;2023-10-13T05:58:32;96956.34;;;23.05;43.17
80124;BME280;69433;48.642;9.142;2023-10-13T06:01:16;96955.59;;;23.05;43.18
80124;BME280;69433;48.642;9.142;2023-10-13T06:04:00;96955.59;;;23.05;43.31
80124;BME280;69433;48.642;9.142;2023-10-13T06:06:50;96955.59;;;23.05;43.25
80124;BME280;69433;48.642;9.142;2023-10-13T06:09:41;96944.88;;;23.05;43.31
80124;BME280;69433;48.642;9.142;2023-10-13T06:12:39;96955.59;;;23.05;43.22
80124;BME280;69433;48.642;9.142;2023-10-13T06:15:36;96957.88;;;23.06;43.36
80124;BME280;69433;48.642;9.142;2023-10-13T06:18:33;96962.47;;;23.06;42.81
80124;BME280;69433;48.642;9.142;2023-10-13T06:21:17;96961.66;;;23.09;43.11
80124;BME280;69433;48.642;9.142;2023-10-13T06:24:06;96967.38;;;23.11;43.04
80124;BME280;69433;48.642;9.142;2023-10-13T06:26:52;96958.91;;;23.12;43.13
80124;BME280;69433;48.642;9.142;2023-10-13T06:29:39;96966.09;;;23.19;42.81
80124;BME280;69433;48.642;9.142;2023-10-13T06:32:06;96968.38;;;23.20;42.83
80124;BME280;69433;48.642;9.142;2023-10-13T06:34:48;96972.94;;;23.23;42.82
80124;BME280;69433;48.642;9.142;2023-10-13T06:37:15;96966.81;;;23.23;42.69
80124;BME280;69433;48.642;9.142;2023-10-13T06:40:10;96975.53;;;23.27;42.80
80124;BME280;69433;48.642;9.142;2023-10-13T06:42:54;96973.97;;;23.29;42.79
80124;BME280;69433;48.642;9.142;2023-10-13T06:45:47;96970.88;;;23.31;42.89
80124;BME280;69433;48.642;9.142;2023-10-13T06:48:45;96968.16;;;23.35;42.48
80124;BME280;69433;48.642;9.142;2023-10-13T06:51:14;96972.69;;;23.38;42.57
80124;BME280;69433;48.642;9.142;2023-10-13T06:53:50;96958.88;;;23.39;42.47
80124;BME280;69433;48.642;9.142;2023-10-13T06:56:36;96961.09;;;23.44;42.56
80124;BME280;69433;48.642;9.142;2023-10-13T06:59:05;96967.53;;;23.47;42.15
80124;BME280;69433;48.642;9.142;2023-10-13T07:01:31;96970.22;;;23.50;42.52
80124;BME280;69433;48.642;9.142;2023-10-13T07:04:06;96962.88;;;23.54;42.33
80124;BME280;69433;48.642;9.142;2023-10-13T07:06:39;96969.31;;;23.57;42.38
80124;BME280;69433;48.642;9.142;2023-10-13T07:09:08;96970.03;;;23.61;41.98
80124;BME280;69433;48.642;9.142;2023-10-13T07:11:53;96968.47;;;23.63;41.97
80124;BME280;69433;48.642;9.142;2023-10-13T07:14:21;96968.38;;;23.67;42.21
80124;BME280;69433;48.642;9.142;2023-10-13T07:17:01;96974.47;;;23.71;41.77
80124;BME280;69433;48.642;9.142;2023-10-13T07:19:27;96971.69;;;23.75;41.78
80124;BME280;69433;48.642;9.142;2023-10-13T07:21:56;96974.31;;;23.78;41.79
80124;BME280;69433;48.642;9.142;2023-10-13T07:24:29;96972.75;;;23.81;41.73
80124;BME280;69433;48.642;9.142;2023-10-13T07:26:58;96970.75;;;23.85;41.63
80124;BME280;69433;48.642;9.142;2023-10-13T07:29:31;96966.47;;;23.87;41.60
80124;BME280;69433;48.642;9.142;2023-10-13T07:32:06;96969.09;;;23.91;41.67
80124;BME280;69433;48.642;9.142;2023-10-13T07:34:38;96971.38;;;23.92;41.86
80124;BME280;69433;48.642;9.142;2023-10-13T07:37:05;96972.16;;;23.93;41.79
80124;BME280;69433;48.642;9.142;2023-10-13T07:39:41;96964.00;;;23.96;41.64
80124;BME280;69433;48.642;9.142;2023-10-13T07:42:10;96959.34;;;24.00;41.65
80124;BME280;69433;48.642;9.142;2023-10-13T07:44:45;96961.94;;;24.04;41.66
80124;BME280;69433;48.642;9.142;2023-10-13T07:47:14;96962.63;;;24.08;41.63
80124;BME280;69433;48.642;9.142;2023-10-13T07:49:40;96966.03;;;24.12;41.47
80124;BME280;69433;48.642;9.142;2023-10-13T07:52:17;96963.66;;;24.14;41.49
80124;BME280;69433;48.642;9.142;2023-10-13T07:54:47;96968.38;;;24.10;41.31
80124;BME280;69433;48.642;9.142;2023-10-13T07:57:16;96965.69;;;24.10;41.51
80124;BME280;69433;48.642;9.142;2023-10-13T07:59:44;96969.38;;;24.16;41.38
80124;BME280;69433;48.642;9.142;2023-10-13T08:02:18;96972.00;;;24.20;41.59
80124;BME280;69433;48.642;9.142;2023-10-13T08:05:20;96964.66;;;24.24;41.40
80124;BME280;69433;48.642;9.142;2023-10-13T08:08:04;96964.19;;;24.29;41.38
80124;BME280;69433;48.642;9.142;2023-10-13T08:10:58;96961.41;;;24.32;41.36
80124;BME280;69433;48.642;9.142;2023-10-13T08:13:35;96959.41;;;24.36;41.27
80124;BME280;69433;48.642;9.142;2023-10-13T08:16:25;96964.28;;;24.41;41.47
80124;BME280;69433;48.642;9.142;2023-10-13T08:19:13;96958.44;;;24.47;41.17
80124;BME280;69433;48.642;9.142;2023-10-13T08:21:44;96956.75;;;24.53;41.46
80124;BME280;69433;48.642;9.142;2023-10-13T08:24:40;96950.91;;;24.58;41.05
80124;BME280;69433;48.642;9.142;2023-10-13T08:27:07;96955.72;;;24.66;41.04
80124;BME280;69433;48.642;9.142;2023-10-13T08:29:46;96951.75;;;24.71;41.07
80124;BME280;69433;48.642;9.142;2023-10-13T08:32:26;96953.97;;;24.76;41.38
80124;BME280;69433;48.642;9.142;2023-10-13T08:34:52;96954.63;;;24.80;41.11
80124;BME280;69433;48.642;9.142;2023-10-13T08:37:20;96948.00;;;24.85;41.09
80124;BME280;69433;48.642;9.142;2023-10-13T08:39:47;96941.38;;;24.89;41.14
80124;BME280;69433;48.642;9.142;2023-10-13T08:42:37;96948.13;;;24.97;40.63
80124;BME280;69433;48.642;9.142;2023-10-13T08:47:46;96938.72;;;25.05;40.43
80124;BME280;69433;48.642;9.142;2023-10-13T08:50:21;96939.38;;;25.09;40.71
80124;BME280;69433;48.642;9.142;2023-10-13T08:56:08;96929.88;;;25.21;40.47
80124;BME280;69433;48.642;9.142;2023-10-13T08:58:42;96929.03;;;25.24;40.45
80124;BME280;69433;48.642;9.142;2023-10-13T09:01:26;96923.91;;;25.30;40.63
80124;BME280;69433;48.642;9.142;2023-10-13T09:04:27;96925.75;;;25.33;40.09
80124;BME280;69433;48.642;9.142;2023-10-13T09:07:10;96927.19;;;25.37;40.14
80124;BME280;69433;48.642;9.142;2023-10-13T09:12:33;96923.97;;;25.42;40.03
80124;BME280;69433;48.642;9.142;2023-10-13T09:18:26;96918.59;;;25.42;40.12
80124;BME280;69433;48.642;9.142;2023-10-13T09:21:12;96919.69;;;25.45;40.06
80124;BME280;69433;48.642;9.142;2023-10-13T09:24:02;96923.03;;;25.49;40.05
80124;BME280;69433;48.642;9.142;2023-10-13T09:26:43;96922.19;;;25.52;40.10
80124;BME280;69433;48.642;9.142;2023-10-13T09:29:19;96922.09;;;25.56;39.95
80124;BME280;69433;48.642;9.142;2023-10-13T09:32:02;96917.41;;;25.60;39.98
80124;BME280;69433;48.642;9.142;2023-10-13T09:34:44;96910.41;;;25.62;40.29
80124;BME280;69433;48.642;9.142;2023-10-13T09:37:10;96903.44;;;25.65;39.86
80124;BME280;69433;48.642;9.142;2023-10-13T09:39:42;96907.19;;;25.67;39.82
80124;BME280;69433;48.642;9.142;2023-10-13T09:42:18;96901.28;;;25.72;39.95
80124;BME280;69433;48.642;9.142;2023-10-13T09:44:50;96897.09;;;25.71;39.88
80124;BME280;69433;48.642;9.142;2023-10-13T09:47:20;96890.88;;;25.74;39.90
80124;BME280;69433;48.642;9.142;2023-10-13T09:49:50;96891.50;;;25.78;39.86
80124;BME280;69433;48.642;9.142;2023-10-13T09:52:29;96892.59;;;25.81;39.90
80124;BME280;69433;48.642;9.142;2023-10-13T09:55:07;96888.31;;;25.83;39.75
80124;BME280;69433;48.642;9.142;2023-10-13T09:57:39;96885.94;;;25.85;39.83
80124;BME280;69433;48.642;9.142;2023-10-13T10:00:29;96882.72;;;25.91;39.62
80124;BME280;69433;48.642;9.142;2023-10-13T10:03:22;96884.56;;;25.94;39.84
80124;BME280;69433;48.642;9.142;2023-10-13T10:06:03;96876.78;;;25.96;39.69
80124;BME280;69433;48.642;9.142;2023-10-13T10:08:33;96877.88;;;25.98;39.59
80124;BME280;69433;48.642;9.142;2023-10-13T10:13:58;96867.66;;;26.06;39.59
80124;BME280;69433;48.642;9.142;2023-10-13T10:16:52;96867.56;;;26.09;39.48
80124;BME280;69433;48.642;9.142;2023-10-13T10:22:32;96866.69;;;26.12;39.38
80124;BME280;69433;48.642;9.142;2023-10-13T10:25:04;96868.97;;;26.14;39.34
80124;BME280;69433;48.642;9.142;2023-10-13T10:27:55;96863.69;;;26.10;39.32
80124;BME280;69433;48.642;9.142;2023-10-13T10:30:48;96860.56;;;26.12;39.39
80124;BME280;69433;48.642;9.142;2023-10-13T10:33:13;96848.06;;;26.18;39.46
80124;BME280;69433;48.642;9.142;2023-10-13T10:35:59;96847.06;;;26.24;39.20
80124;BME280;69433;48.642;9.142;2023-10-13T10:38:25;96858.44;;;26.57;38.67
80124;BME280;69433;48.642;9.142;2023-10-13T10:41:16;96848.69;;;26.73;38.24
80124;BME280;69433;48.642;9.142;2023-10-13T10:43:49;96838.38;;;26.58;38.41
80124;BME280;69433;48.642;9.142;2023-10-13T10:46:28;96840.66;;;26.47;38.87
80124;BME280;69433;48.642;9.142;2023-10-13T10:48:56;96840.53;;;26.38;39.06
80124;BME280;69433;48.642;9.142;2023-10-13T10:51:26;96838.41;;;26.33;39.07
80124;BME280;69433;48.642;9.142;2023-10-13T10:54:19;96835.81;;;26.30;39.22
80124;BME280;69433;48.642;9.142;2023-10-13T10:56:55;96833.00;;;26.33;38.96
80124;BME280;69433;48.642;9.142;2023-10-13T10:59:38;96827.78;;;26.77;38.14
80124;BME280;69433;48.642;9.142;2023-10-13T11:05:09;96817.13;;;27.86;36.17
80124;BME280;69433;48.642;9.142;2023-10-13T11:08:08;96815.09;;;28.88;34.02
80124;BME280;69433;48.642;9.142;2023-10-13T11:10:49;96812.41;;;29.52;32.96
80124;BME280;69433;48.642;9.142;2023-10-13T11:13:15;96809.25;;;28.90;34.34
80124;BME280;69433;48.642;9.142;2023-10-13T11:15:51;96806.44;;;28.53;34.75
80124;BME280;69433;48.642;9.142;2023-10-13T11:18:32;96806.09;;;28.33;34.87
80124;BME280;69433;48.642;9.142;2023-10-13T11:21:15;96797.94;;;28.24;34.99
80124;BME280;69433;48.642;9.142;2023-10-13T11:23:40;96797.94;;;28.24;35.54
80124;BME280;69433;48.642;9.142;2023-10-13T11:26:05;96799.16;;;28.32;35.48
80124;BME280;69433;48.642;9.142;2023-10-13T11:28:37;96794.50;;;28.91;33.93
80124;BME280;69433;48.642;9.142;2023-10-13T11:31:20;96791.66;;;29.58;32.69
80124;BME280;69433;48.642;9.142;2023-10-13T11:33:45;96794.75;;;30.26;31.91
80124;BME280;69433;48.642;9.142;2023-10-13T11:36:25;96787.59;;;30.94;30.78
80124;BME280;69433;48.642;9.142;2023-10-13T11:38:56;96788.63;;;31.35;30.51
80124;BME280;69433;48.642;9.142;2023-10-13T11:41:23;96786.13;;;31.61;29.62
80124;BME280;69433;48.642;9.142;2023-10-13T11:43:54;96769.63;;;31.80;29.23
80124;BME280;69433;48.642;9.142;2023-10-13T11:46:37;96783.63;;;32.22;29.04
80124;BME280;69433;48.642;9.142;2023-10-13T11:52:25;96762.47;;;32.67;27.58
80124;BME280;69433;48.642;9.142;2023-10-13T11:54:58;96758.00;;;32.84;27.76
80124;BME280;69433;48.642;9.142;2023-10-13T12:00:45;96746.38;;;33.09;27.76
80124;BME280;69433;48.642;9.142;2023-10-13T12:03:21;96736.91;;;33.25;27.50
80124;BME280;69433;48.642;9.142;2023-10-13T12:06:08;96736.34;;;33.21;26.67
80124;BME280;69433;48.642;9.142;2023-10-13T12:08:55;96730.59;;;33.39;26.49
80124;BME280;69433;48.642;9.142;2023-10-13T12:11:23;96738.41;;;33.52;26.47
80124;BME280;69433;48.642;9.142;2023-10-13T12:14:12;96728.53;;;33.60;26.50
80124;BME280;69433;48.642;9.142;2023-10-13T12:17:00;96724.84;;;33.63;26.31
80124;BME280;69433;48.642;9.142;2023-10-13T12:19:49;96729.59;;;33.68;26.48
80124;BME280;69433;48.642;9.142;2023-10-13T12:22:44;96717.72;;;33.71;26.36
80124;BME280;69433;48.642;9.142;2023-10-13T12:25:31;96714.53;;;33.73;26.04
80124;BME280;69433;48.642;9.142;2023-10-13T12:27:56;96713.91;;;33.58;26.80
80124;BME280;69433;48.642;9.142;2023-10-13T12:30:24;96708.47;;;33.06;26.92
80124;BME280;69433;48.642;9.142;2023-10-13T12:36:48;96705.09;;;30.92;30.21
80124;BME280;69433;48.642;9.142;2023-10-13T12:39:38;96694.16;;;30.39;31.12
80124;BME280;69433;48.642;9.142;2023-10-13T12:42:22;96691.97;;;30.04;31.40
80124;BME280;69433;48.642;9.142;2023-10-13T12:45:17;96686.78;;;29.82;32.40
80124;BME280;69433;48.642;9.142;2023-10-13T12:48:01;96676.53;;;29.86;31.75
80124;BME280;69433;48.642;9.142;2023-10-13T12:50:55;96679.50;;;30.69;31.12
80124;BME280;69433;48.642;9.142;2023-10-13T12:53:33;96676.59;;;31.41;29.78
80124;BME280;69433;48.642;9.142;2023-10-13T12:55:58;96671.03;;;31.79;29.63
80124;BME280;69433;48.642;9.142;2023-10-13T12:58:24;96671.41;;;32.07;28.99
80124;BME280;69433;48.642;9.142;2023-10-13T13:01:03;96670.34;;;32.19;28.65
80124;BME280;69433;48.642;9.142;2023-10-13T13:06:53;96664.50;;;32.47;27.30
80124;BME280;69433;48.642;9.142;2023-10-13T13:09:25;96659.94;;;32.58;27.49
80124;BME280;69433;48.642;9.142;2023-10-13T13:11:54;96649.84;;;32.64;27.11
80124;BME280;69433;48.642;9.142;2023-10-13T13:14:36;96643.69;;;32.69;27.23
80124;BME280;69433;48.642;9.142;2023-10-13T13:17:01;96645.53;;;32.78;27.28
80124;BME280;69433;48.642;9.142;2023-10-13T13:19:48;96647.69;;;32.94;27.13
80124;BME280;69433;48.642;9.142;2023-10-13T13:22:35;96644.06;;;33.03;26.49
80124;BME280;69433;48.642;9.142;2023-10-13T13:25:13;96646.06;;;33.08;26.97
80124;BME280;69433;48.642;9.142;2023-10-13T13:27:42;96639.13;;;33.07;26.49
80124;BME280;69433;48.642;9.142;2023-10-13T13:30:19;96644.19;;;33.20;26.97
80124;BME280;69433;48.642;9.142;2023-10-13T13:32:46;96636.78;;;33.20;26.61
80124;BME280;69433;48.642;9.142;2023-10-13T13:35:15;96623.63;;;33.18;26.95
80124;BME280;69433;48.642;9.142;2023-10-13T13:37:54;96634.00;;;33.14;26.78
80124;BME280;69433;48.642;9.142;2023-10-13T13:40:30;96637.22;;;33.13;27.06
80124;BME280;69433;48.642;9.142;2023-10-13T13:43:00;96626.75;;;33.06;26.81
80124;BME280;69433;48.642;9.142;2023-10-13T13:45:26;96622.59;;;32.85;27.28
80124;BME280;69433;48.642;9.142;2023-10-13T13:48:29;96611.03;;;32.03;28.29
80124;BME280;69433;48.642;9.142;2023-10-13T13:50:54;96621.34;;;31.14;29.58
80124;BME280;69433;48.642;9.142;2023-10-13T13:53:36;96610.22;;;30.44;30.79
80124;BME280;69433;48.642;9.142;2023-10-13T13:56:03;96613.66;;;30.06;31.12
80124;BME280;69433;48.642;9.142;2023-10-13T13:58:49;96607.19;;;29.71;31.81
80124;BME280;69433;48.642;9.142;2023-10-13T14:01:34;96600.31;;;29.37;32.88
80124;BME280;69433;48.642;9.142;2023-10-13T14:04:02;96596.63;;;29.07;33.13
80124;BME280;69433;48.642;9.142;2023-10-13T14:06:29;96589.31;;;28.80;33.15
80124;BME280;69433;48.642;9.142;2023-10-13T14:09:00;96584.97;;;28.55;33.86
80124;BME280;69433;48.642;9.142;2023-10-13T14:11:46;96588.88;;;28.27;34.75
80124;BME280;69433;48.642;9.142;2023-10-13T14:14:30;96575.50;;;28.05;34.75
80124;BME280;69433;48.642;9.142;2023-10-13T14:17:23;96580.25;;;27.83;35.77
80124;BME280;69433;48.642;9.142;2023-10-13T14:20:02;96582.50;;;27.66;35.72
80124;BME280;69433;48.642;9.142;2023-10-13T14:22:52;96578.97;;;27.47;36.28
80124;BME280;69433;48.642;9.142;2023-10-13T14:25:19;96569.31;;;27.37;36.00
80124;BME280;69433;48.642;9.142;2023-10-13T14:27:49;96570.94;;;27.25;36.31